createdAt,value
2022-08-26T00:02:01.671Z,7.18
2022-08-26T00:05:05.637Z,7.40
2022-08-26T00:08:10.209Z,7.37
2022-08-26T00:11:16.493Z,7.25
2022-08-26T00:14:31.986Z,6.60
2022-08-26T00:17:36.481Z,7.45
2022-08-26T00:20:43.738Z,6.70
2022-08-26T00:23:47.459Z,6.73
2022-08-26T00:26:51.624Z,7.13
2022-08-26T00:29:56.860Z,6.15
2022-08-26T00:33:02.507Z,7.32
2022-08-26T00:36:06.962Z,6.93
2022-08-26T00:39:10.792Z,6.93
2022-08-26T00:42:14.290Z,6.65
2022-08-26T00:45:20.797Z,7.13
2022-08-26T00:48:30.754Z,6.93
2022-08-26T00:51:43.787Z,6.88
2022-08-26T00:54:54.597Z,6.93
2022-08-26T00:57:58.138Z,6.85
2022-08-26T01:01:03.219Z,6.63
2022-08-26T01:04:07.388Z,6.75
2022-08-26T01:07:11.074Z,6.53
2022-08-26T01:10:18.241Z,6.70
2022-08-26T01:13:22.165Z,6.70
2022-08-26T01:16:28.913Z,6.68
2022-08-26T01:19:37.570Z,6.85
2022-08-26T01:22:54.364Z,6.93
2022-08-26T01:26:03.172Z,6.00
2022-08-26T01:29:12.914Z,7.07
2022-08-26T01:32:22.276Z,6.38
2022-08-26T01:35:27.110Z,6.80
2022-08-26T01:38:32.029Z,7.15
2022-08-26T01:41:38.012Z,6.83
2022-08-26T01:44:45.347Z,6.90
2022-08-26T01:47:56.862Z,6.70
2022-08-26T01:51:01.887Z,7.03
2022-08-26T01:54:11.969Z,6.75
2022-08-26T01:57:18.063Z,6.37
2022-08-26T02:00:23.084Z,6.75
2022-08-26T02:03:28.578Z,6.78
2022-08-26T02:06:33.467Z,6.75
2022-08-26T02:09:41.364Z,6.72
2022-08-26T02:12:45.023Z,6.90
2022-08-26T02:15:49.794Z,6.60
2022-08-26T02:18:54.870Z,6.93
2022-08-26T02:22:02.418Z,6.22
2022-08-26T02:25:17.619Z,7.15
2022-08-26T02:28:21.061Z,6.87
2022-08-26T02:31:30.365Z,6.75
2022-08-26T02:34:34.925Z,7.00
2022-08-26T02:37:38.447Z,6.38
2022-08-26T02:40:47.019Z,6.63
2022-08-26T02:43:51.702Z,6.60
2022-08-26T02:46:55.987Z,7.03
2022-08-26T02:49:59.771Z,7.15
2022-08-26T02:53:03.364Z,6.80
2022-08-26T02:56:10.452Z,7.18
2022-08-26T02:59:13.957Z,7.20
2022-08-26T03:02:17.532Z,7.07
2022-08-26T03:05:22.250Z,7.03
2022-08-26T03:08:27.770Z,7.55
2022-08-26T03:11:33.370Z,7.90
2022-08-26T03:14:36.909Z,6.77
2022-08-26T03:17:40.552Z,7.82
2022-08-26T03:20:44.141Z,7.68
2022-08-26T03:23:48.163Z,7.63
2022-08-26T03:26:53.263Z,7.68
2022-08-26T03:30:14.088Z,7.60
2022-08-26T03:33:19.150Z,7.45
2022-08-26T03:36:23.308Z,8.32
2022-08-26T03:39:28.559Z,8.20
2022-08-26T03:42:38.993Z,8.10
2022-08-26T03:45:42.638Z,8.00
2022-08-26T03:48:46.200Z,7.95
2022-08-26T03:51:50.100Z,8.05
2022-08-26T03:54:53.662Z,8.10
2022-08-26T03:57:59.028Z,8.05
2022-08-26T04:01:02.564Z,7.87
2022-08-26T04:04:06.683Z,7.72
2022-08-26T04:07:10.926Z,7.38
2022-08-26T04:10:20.139Z,7.47
2022-08-26T04:13:27.077Z,8.43
2022-08-26T04:16:31.204Z,8.97
2022-08-26T04:19:34.693Z,9.30
2022-08-26T04:22:38.806Z,9.00
2022-08-26T04:25:42.283Z,9.35
2022-08-26T04:28:47.833Z,9.90
2022-08-26T04:31:52.016Z,9.87
2022-08-26T04:34:59.274Z,8.88
2022-08-26T04:38:05.874Z,9.35
2022-08-26T04:41:15.285Z,9.00
2022-08-26T04:44:22.141Z,9.07
2022-08-26T04:47:30.417Z,9.67
2022-08-26T04:50:35.950Z,9.35
2022-08-26T04:53:39.744Z,9.48
2022-08-26T04:56:45.709Z,9.70
2022-08-26T04:59:50.510Z,9.45
2022-08-26T05:02:55.052Z,8.57
2022-08-26T05:05:58.828Z,9.50
2022-08-26T05:09:02.484Z,8.70
2022-08-26T05:12:06.456Z,8.57
2022-08-26T05:15:12.314Z,8.80
2022-08-26T05:18:21.259Z,8.43
2022-08-26T05:21:29.183Z,8.60
2022-08-26T05:24:32.727Z,8.15
2022-08-26T05:27:36.806Z,7.95
2022-08-26T05:30:42.691Z,7.57
2022-08-26T05:33:48.369Z,7.80
2022-08-26T05:36:52.567Z,8.43
2022-08-26T05:39:56.133Z,8.05
2022-08-26T05:43:00.957Z,7.88
2022-08-26T05:46:08.627Z,7.82
2022-08-26T05:49:13.476Z,7.87
2022-08-26T05:52:16.964Z,7.57
2022-08-26T05:55:21.152Z,7.60
2022-08-26T05:58:26.683Z,7.30
2022-08-26T06:01:31.988Z,7.50
2022-08-26T06:04:39.441Z,8.40
2022-08-26T06:07:57.199Z,7.30
2022-08-26T06:11:02.904Z,7.47
2022-08-26T06:14:08.922Z,7.50
2022-08-26T06:17:13.824Z,7.20
2022-08-26T06:20:17.608Z,7.10
2022-08-26T06:23:39.672Z,6.70
2022-08-26T06:26:50.674Z,7.50
2022-08-26T06:29:54.804Z,6.93
2022-08-26T06:32:59.779Z,7.10
2022-08-26T06:36:04.026Z,6.70
2022-08-26T06:39:10.039Z,6.85
2022-08-26T06:42:13.508Z,6.90
2022-08-26T06:45:18.566Z,6.95
2022-08-26T06:48:23.638Z,5.95
2022-08-26T06:51:29.042Z,6.70
2022-08-26T06:54:32.639Z,6.20
2022-08-26T06:57:37.715Z,6.55
2022-08-26T07:00:47.358Z,7.25
2022-08-26T07:03:54.673Z,6.82
2022-08-26T07:07:00.665Z,6.67
2022-08-26T07:10:04.209Z,6.75
2022-08-26T07:13:08.324Z,6.32
2022-08-26T07:16:14.156Z,6.43
2022-08-26T07:19:29.791Z,6.53
2022-08-26T07:22:34.926Z,6.33
2022-08-26T07:25:40.889Z,6.20
2022-08-26T07:28:47.152Z,6.18
2022-08-26T07:31:50.693Z,5.93
2022-08-26T07:34:55.586Z,6.25
2022-08-26T07:37:59.085Z,5.90
2022-08-26T07:41:03.497Z,6.15
2022-08-26T07:44:08.733Z,6.22
2022-08-26T07:47:25.167Z,5.70
2022-08-26T07:50:49.217Z,6.10
2022-08-26T07:53:54.868Z,5.60
2022-08-26T07:56:59.863Z,5.47
2022-08-26T08:00:06.333Z,5.82
2022-08-26T08:03:16.056Z,5.38
2022-08-26T08:06:23.214Z,5.55
2022-08-26T08:09:31.049Z,4.90
2022-08-26T08:12:34.771Z,5.47
2022-08-26T08:15:38.260Z,5.40
2022-08-26T08:18:42.428Z,5.35
2022-08-26T08:21:47.362Z,5.40
2022-08-26T08:24:53.054Z,5.33
2022-08-26T08:27:57.001Z,5.38
2022-08-26T08:31:01.452Z,5.65
2022-08-26T08:34:05.017Z,4.93
2022-08-26T08:37:10.885Z,5.68
2022-08-26T08:40:18.440Z,5.33
2022-08-26T08:43:32.720Z,5.65
2022-08-26T08:46:43.606Z,5.57
2022-08-26T08:49:47.524Z,5.50
2022-08-26T08:53:01.572Z,5.10
2022-08-26T08:56:11.193Z,5.57
2022-08-26T08:59:18.146Z,5.25
2022-08-26T09:02:28.358Z,5.60
2022-08-26T09:05:37.165Z,5.43
2022-08-26T09:08:42.122Z,5.45
2022-08-26T09:11:45.829Z,5.47
2022-08-26T09:14:51.137Z,5.50
2022-08-26T09:18:05.877Z,5.43
2022-08-26T09:21:12.677Z,5.47
2022-08-26T09:24:18.136Z,5.57
2022-08-26T09:27:37.773Z,5.40
2022-08-26T09:30:41.313Z,4.95
2022-08-26T09:33:45.252Z,5.38
2022-08-26T09:36:51.406Z,4.80
2022-08-26T09:40:12.213Z,5.15
2022-08-26T09:43:22.419Z,4.60
2022-08-26T09:46:29.265Z,4.80
2022-08-26T09:49:36.504Z,5.13
2022-08-26T09:52:40.325Z,5.43
2022-08-26T09:55:49.569Z,5.32
2022-08-26T09:58:54.199Z,5.20
2022-08-26T10:02:16.188Z,5.18
2022-08-26T10:05:31.838Z,5.18
2022-08-26T10:08:38.753Z,5.22
2022-08-26T10:11:48.231Z,5.57
2022-08-26T10:14:56.226Z,5.17
2022-08-26T10:18:09.497Z,5.45
2022-08-26T10:21:17.816Z,4.90
2022-08-26T10:24:27.184Z,4.78
2022-08-26T10:27:48.373Z,5.18
2022-08-26T10:30:59.469Z,5.60
2022-08-26T10:34:03.199Z,5.90
2022-08-26T10:37:14.629Z,5.88
2022-08-26T10:40:24.714Z,5.57
2022-08-26T10:43:32.378Z,5.82
2022-08-26T10:46:41.970Z,5.43
2022-08-26T10:49:50.296Z,5.80
2022-08-26T10:53:01.740Z,6.07
2022-08-26T10:56:18.581Z,5.65
2022-08-26T10:59:36.806Z,5.70
2022-08-26T11:02:46.923Z,5.43
2022-08-26T11:06:16.357Z,5.45
2022-08-26T11:09:44.505Z,5.68
2022-08-26T11:13:03.598Z,5.65
2022-08-26T11:16:09.396Z,5.35
2022-08-26T11:19:58.983Z,6.00
2022-08-26T11:23:36.275Z,5.95
2022-08-26T11:26:55.652Z,5.65
2022-08-26T11:30:02.976Z,5.30
2022-08-26T11:33:09.179Z,5.43
2022-08-26T11:36:28.698Z,5.30
2022-08-26T11:39:38.655Z,5.85
2022-08-26T11:42:49.166Z,5.90
2022-08-26T11:46:00.694Z,5.38
2022-08-26T11:49:08.288Z,5.80
2022-08-26T11:52:15.690Z,5.37
2022-08-26T11:55:20.194Z,5.38
2022-08-26T11:58:28.612Z,5.50
2022-08-26T12:01:35.714Z,6.00
2022-08-26T12:04:44.183Z,5.45
2022-08-26T12:17:44.005Z,5.80
2022-08-26T12:20:51.379Z,6.05
2022-08-26T12:23:56.545Z,6.07
2022-08-26T12:27:15.117Z,5.70
2022-08-26T12:30:21.129Z,5.70
2022-08-26T12:33:25.109Z,5.88
2022-08-26T12:36:32.541Z,6.00
2022-08-26T12:39:38.763Z,5.80
2022-08-26T12:42:43.390Z,5.50
2022-08-26T12:45:58.075Z,5.60
2022-08-26T12:49:03.028Z,5.82
2022-08-26T12:52:29.876Z,5.75
2022-08-26T12:55:40.801Z,5.85
2022-08-26T12:58:44.879Z,5.20
2022-08-26T13:01:49.513Z,5.60
2022-08-26T13:05:00.852Z,5.63
2022-08-26T13:08:14.959Z,6.10
2022-08-26T13:11:20.488Z,5.80
2022-08-26T13:14:25.337Z,5.70
2022-08-26T13:17:30.469Z,5.40
2022-08-26T13:20:34.102Z,6.25
2022-08-26T13:23:42.527Z,5.82
2022-08-26T13:26:49.084Z,6.20
2022-08-26T13:29:52.875Z,5.30
2022-08-26T13:33:00.913Z,5.93
2022-08-26T13:36:06.282Z,5.72
2022-08-26T13:39:11.603Z,5.30
2022-08-26T13:42:15.258Z,6.13
2022-08-26T13:45:19.144Z,5.70
2022-08-26T13:48:23.534Z,5.50
2022-08-26T13:51:28.665Z,5.78
2022-08-26T13:54:33.554Z,5.72
2022-08-26T13:57:37.035Z,5.72
2022-08-26T14:00:41.448Z,5.53
2022-08-26T14:03:45.224Z,5.85
2022-08-26T14:06:48.828Z,6.30
2022-08-26T14:09:53.723Z,6.05
2022-08-26T14:12:57.609Z,6.32
2022-08-26T14:16:02.239Z,6.07
2022-08-26T14:19:07.508Z,5.90
2022-08-26T14:22:11.038Z,6.13
2022-08-26T14:25:16.231Z,5.53
2022-08-26T14:28:19.881Z,5.63
2022-08-26T14:31:24.538Z,5.63
2022-08-26T14:34:28.146Z,6.38
2022-08-26T14:37:34.608Z,5.93
2022-08-26T14:40:40.343Z,6.00
2022-08-26T14:43:49.439Z,5.90
2022-08-26T14:46:54.707Z,6.00
2022-08-26T14:49:58.843Z,5.93
2022-08-26T14:53:19.945Z,5.95
2022-08-26T14:56:25.302Z,5.78
2022-08-26T14:59:30.823Z,6.13
2022-08-26T15:02:34.662Z,5.87
2022-08-26T15:05:39.951Z,6.03
2022-08-26T15:08:43.445Z,7.10
2022-08-26T15:11:48.588Z,6.43
2022-08-26T15:14:52.165Z,6.55
2022-08-26T15:17:55.656Z,6.50
2022-08-26T15:20:59.138Z,5.70
2022-08-26T15:24:03.291Z,6.13
2022-08-26T15:27:09.136Z,7.03
2022-08-26T15:30:14.427Z,6.43
2022-08-26T15:33:18.604Z,6.37
2022-08-26T15:36:22.081Z,6.15
2022-08-26T15:39:25.589Z,6.80
2022-08-26T15:42:30.818Z,6.40
2022-08-26T15:45:34.717Z,6.38
2022-08-26T15:48:38.480Z,6.20
2022-08-26T15:51:45.830Z,6.10
2022-08-26T15:54:49.734Z,7.20
2022-08-26T15:57:55.732Z,6.05
2022-08-26T16:01:00.349Z,6.10
2022-08-26T16:04:04.911Z,6.10
2022-08-26T16:07:08.387Z,6.15
2022-08-26T16:10:12.058Z,6.13
2022-08-26T16:13:17.141Z,6.20
2022-08-26T16:16:21.487Z,6.43
2022-08-26T16:19:25.502Z,5.87
2022-08-26T16:22:28.960Z,5.43
2022-08-26T16:25:34.160Z,5.93
2022-08-26T16:28:39.485Z,5.55
2022-08-26T16:31:43.560Z,5.55
2022-08-26T16:34:56.930Z,6.07
2022-08-26T16:38:00.544Z,5.78
2022-08-26T16:41:04.415Z,5.90
2022-08-26T16:44:11.463Z,5.80
2022-08-26T16:47:16.483Z,6.13
2022-08-26T16:50:22.418Z,5.77
2022-08-26T16:53:25.909Z,5.63
2022-08-26T16:56:34.042Z,6.20
2022-08-26T16:59:40.141Z,5.72
2022-08-26T17:02:43.738Z,5.80
2022-08-26T17:05:47.288Z,5.50
2022-08-26T17:08:50.871Z,5.97
2022-08-26T17:11:55.284Z,5.88
2022-08-26T17:15:00.231Z,6.03
2022-08-26T17:18:03.806Z,6.00
2022-08-26T17:21:10.781Z,6.23
2022-08-26T17:24:15.011Z,5.70
2022-08-26T17:27:18.545Z,6.18
2022-08-26T17:30:24.143Z,5.65
2022-08-26T17:33:28.232Z,6.10
2022-08-26T17:36:31.733Z,6.10
2022-08-26T17:39:37.181Z,5.97
2022-08-26T17:42:41.228Z,6.20
2022-08-26T17:45:46.099Z,5.60
2022-08-26T17:48:49.551Z,6.50
2022-08-26T17:51:52.997Z,6.13
2022-08-26T17:54:56.808Z,6.32
2022-08-26T17:58:00.496Z,5.65
2022-08-26T18:01:09.324Z,6.22
2022-08-26T18:04:13.616Z,6.00
2022-08-26T18:07:17.573Z,5.83
2022-08-26T18:10:22.263Z,6.03
2022-08-26T18:13:26.235Z,5.70
2022-08-26T18:16:31.698Z,5.90
2022-08-26T18:19:35.309Z,5.85
2022-08-26T18:22:38.982Z,5.87
2022-08-26T18:25:43.625Z,5.95
2022-08-26T18:28:47.159Z,6.80
2022-08-26T18:31:52.107Z,6.75
2022-08-26T18:34:55.615Z,6.35
2022-08-26T18:38:01.906Z,5.57
2022-08-26T18:41:15.138Z,5.55
2022-08-26T18:44:21.344Z,6.05
2022-08-26T18:47:26.202Z,6.35
2022-08-26T18:50:30.142Z,6.13
2022-08-26T18:53:34.711Z,6.20
2022-08-26T18:56:39.247Z,6.72
2022-08-26T18:59:42.783Z,5.97
2022-08-26T19:02:51.913Z,6.43
2022-08-26T19:05:58.914Z,5.82
2022-08-26T19:09:03.208Z,5.90
2022-08-26T19:12:08.532Z,6.32
2022-08-26T19:15:13.314Z,6.30
2022-08-26T19:18:20.278Z,5.95
2022-08-26T19:21:24.797Z,6.25
2022-08-26T19:24:29.055Z,5.83
2022-08-26T19:27:33.767Z,6.07
2022-08-26T19:30:42.052Z,6.75
2022-08-26T19:33:47.229Z,5.93
2022-08-26T19:36:53.129Z,5.93
2022-08-26T19:39:56.967Z,5.90
2022-08-26T19:43:00.533Z,6.30
2022-08-26T19:46:11.004Z,6.13
2022-08-26T19:49:15.876Z,6.43
2022-08-26T19:52:19.713Z,6.53
2022-08-26T19:55:24.151Z,6.37
2022-08-26T19:58:27.809Z,6.10
2022-08-26T20:01:32.076Z,6.00
2022-08-26T20:04:37.598Z,6.57
2022-08-26T20:07:41.885Z,6.35
2022-08-26T20:10:47.135Z,6.27
2022-08-26T20:13:50.948Z,6.53
2022-08-26T20:16:54.919Z,6.22
2022-08-26T20:20:32.937Z,6.10
2022-08-26T20:23:37.924Z,6.15
2022-08-26T20:26:43.870Z,5.97
2022-08-26T20:29:47.507Z,6.15
2022-08-26T20:32:51.204Z,6.40
2022-08-26T20:35:56.210Z,5.80
2022-08-26T20:38:59.822Z,5.88
2022-08-26T20:42:03.565Z,5.90
2022-08-26T20:45:08.263Z,6.18
2022-08-26T20:48:12.072Z,6.10
2022-08-26T20:51:18.760Z,5.65
2022-08-26T20:54:28.216Z,6.75
2022-08-26T20:57:32.056Z,6.30
2022-08-26T21:00:35.610Z,5.93
2022-08-26T21:03:39.541Z,6.25
2022-08-26T21:06:52.461Z,6.80
2022-08-26T21:09:56.484Z,6.03
2022-08-26T21:12:59.980Z,6.20
2022-08-26T21:16:03.768Z,6.28
2022-08-26T21:19:09.272Z,6.75
2022-08-26T21:22:14.249Z,6.05
2022-08-26T21:25:17.945Z,6.07
2022-08-26T21:28:21.428Z,5.87
2022-08-26T21:31:26.510Z,5.88
2022-08-26T21:34:30.059Z,6.05
2022-08-26T21:37:35.140Z,5.78
2022-08-26T21:40:38.607Z,6.15
2022-08-26T21:43:42.991Z,6.03
2022-08-26T21:46:47.438Z,5.97
2022-08-26T21:49:51.091Z,5.90
2022-08-26T21:52:55.919Z,5.72
2022-08-26T21:55:59.442Z,6.30
2022-08-26T21:59:03.269Z,5.90
2022-08-26T22:02:07.428Z,5.78
2022-08-26T22:05:11.394Z,5.70
2022-08-26T22:08:16.786Z,5.97
2022-08-26T22:11:21.133Z,6.10
2022-08-26T22:14:30.485Z,5.67
2022-08-26T22:17:34.501Z,5.50
2022-08-26T22:20:37.964Z,5.43
2022-08-26T22:23:43.504Z,5.78
2022-08-26T22:26:48.084Z,5.70
2022-08-26T22:29:51.577Z,5.97
2022-08-26T22:32:55.164Z,6.05
2022-08-26T22:35:58.929Z,5.93
2022-08-26T22:39:04.198Z,5.55
2022-08-26T22:42:07.766Z,6.00
2022-08-26T22:45:12.310Z,6.23
2022-08-26T22:48:19.320Z,6.35
2022-08-26T22:51:23.486Z,6.43
2022-08-26T22:54:28.396Z,5.95
2022-08-26T22:57:31.935Z,6.32
2022-08-26T23:00:35.568Z,5.63
2022-08-26T23:03:39.153Z,5.80
2022-08-26T23:06:47.641Z,6.18
2022-08-26T23:09:52.874Z,6.80
2022-08-26T23:12:56.722Z,6.05
2022-08-26T23:16:04.592Z,6.47
2022-08-26T23:19:08.690Z,6.10
2022-08-26T23:22:12.596Z,6.45
2022-08-26T23:25:17.468Z,6.70
2022-08-26T23:28:21.977Z,7.07
2022-08-26T23:31:25.616Z,6.33
2022-08-26T23:34:46.813Z,5.95
2022-08-26T23:37:53.054Z,6.00
2022-08-26T23:40:57.950Z,6.45
2022-08-26T23:44:03.573Z,5.95
2022-08-26T23:47:07.774Z,6.40
2022-08-26T23:50:11.915Z,6.28
2022-08-26T23:53:19.565Z,6.90
2022-08-26T23:56:24.823Z,6.30
2022-08-26T23:59:30.275Z,6.32
